sensor_id;sensor_type;location;lat;lon;timestamp;temperature;humidity
8436;DHT22;4255;48.730;9.156;2022-10-16T00:01:10;17.50;99.90
8436;DHT22;4255;48.730;9.156;2022-10-16T00:03:37;17.60;99.90
8436;DHT22;4255;48.730;9.156;2022-10-16T00:06:04;17.60;99.90
8436;DHT22;4255;48.730;9.156;2022-10-16T00:08:29;17.60;99.90
8436;DHT22;4255;48.730;9.156;2022-10-16T00:11:10;17.50;99.90
8436;DHT22;4255;48.730;9.156;2022-10-16T00:13:38;17.50;99.90
8436;DHT22;4255;48.730;9.156;2022-10-16T00:16:05;17.50;99.90
8436;DHT22;4255;48.730;9.156;2022-10-16T00:18:31;17.50;99.90
8436;DHT22;4255;48.730;9.156;2022-10-16T00:21:05;17.50;99.90
8436;DHT22;4255;48.730;9.156;2022-10-16T00:23:31;17.50;99.90
8436;DHT22;4255;48.730;9.156;2022-10-16T00:25:59;17.50;99.90
8436;DHT22;4255;48.730;9.156;2022-10-16T00:28:25;17.50;99.90
8436;DHT22;4255;48.730;9.156;2022-10-16T00:30:51;17.50;99.90
8436;DHT22;4255;48.730;9.156;2022-10-16T00:33:16;17.30;99.90
8436;DHT22;4255;48.730;9.156;2022-10-16T00:35:42;17.30;99.90
8436;DHT22;4255;48.730;9.156;2022-10-16T00:38:07;17.20;99.90
8436;DHT22;4255;48.730;9.156;2022-10-16T00:40:33;17.20;99.90
8436;DHT22;4255;48.730;9.156;2022-10-16T00:42:59;17.20;99.90
8436;DHT22;4255;48.730;9.156;2022-10-16T00:45:24;17.20;99.90
8436;DHT22;4255;48.730;9.156;2022-10-16T00:47:51;17.20;99.90
8436;DHT22;4255;48.730;9.156;2022-10-16T00:50:28;17.20;99.90
8436;DHT22;4255;48.730;9.156;2022-10-16T00:52:56;17.10;99.90
8436;DHT22;4255;48.730;9.156;2022-10-16T00:55:22;16.90;99.90
8436;DHT22;4255;48.730;9.156;2022-10-16T00:57:49;16.80;99.90
8436;DHT22;4255;48.730;9.156;2022-10-16T01:00:18;16.80;99.90
8436;DHT22;4255;48.730;9.156;2022-10-16T01:02:50;16.80;99.90
8436;DHT22;4255;48.730;9.156;2022-10-16T01:05:16;16.80;99.90
8436;DHT22;4255;48.730;9.156;2022-10-16T01:10:37;16.90;99.90
8436;DHT22;4255;48.730;9.156;2022-10-16T01:13:11;16.90;99.90
8436;DHT22;4255;48.730;9.156;2022-10-16T01:21:02;17.00;99.90
8436;DHT22;4255;48.730;9.156;2022-10-16T01:31:18;17.00;99.90
8436;DHT22;4255;48.730;9.156;2022-10-16T01:33:58;17.00;99.90
8436;DHT22;4255;48.730;9.156;2022-10-16T01:36:35;17.00;99.90
8436;DHT22;4255;48.730;9.156;2022-10-16T01:39:02;17.00;99.90
8436;DHT22;4255;48.730;9.156;2022-10-16T01:41:33;17.00;99.90
8436;DHT22;4255;48.730;9.156;2022-10-16T01:44:10;17.00;99.90
8436;DHT22;4255;48.730;9.156;2022-10-16T01:46:39;16.80;99.90
8436;DHT22;4255;48.730;9.156;2022-10-16T01:49:06;16.90;99.90
8436;DHT22;4255;48.730;9.156;2022-10-16T01:51:34;16.80;99.90
8436;DHT22;4255;48.730;9.156;2022-10-16T01:54:01;16.80;99.90
8436;DHT22;4255;48.730;9.156;2022-10-16T01:56:27;16.70;99.90
8436;DHT22;4255;48.730;9.156;2022-10-16T01:59:06;16.70;99.90
8436;DHT22;4255;48.730;9.156;2022-10-16T02:01:37;16.70;99.90
8436;DHT22;4255;48.730;9.156;2022-10-16T02:04:10;16.60;99.90
8436;DHT22;4255;48.730;9.156;2022-10-16T02:06:37;16.50;99.90
8436;DHT22;4255;48.730;9.156;2022-10-16T02:09:03;16.50;99.90
8436;DHT22;4255;48.730;9.156;2022-10-16T02:11:28;16.40;99.90
8436;DHT22;4255;48.730;9.156;2022-10-16T02:14:00;16.40;99.90
8436;DHT22;4255;48.730;9.156;2022-10-16T02:16:39;16.40;99.90
8436;DHT22;4255;48.730;9.156;2022-10-16T02:19:06;16.50;99.90
8436;DHT22;4255;48.730;9.156;2022-10-16T02:24:12;16.60;99.90
8436;DHT22;4255;48.730;9.156;2022-10-16T02:27:00;16.70;99.90
8436;DHT22;4255;48.730;9.156;2022-10-16T02:29:28;16.80;99.90
8436;DHT22;4255;48.730;9.156;2022-10-16T02:31:58;16.90;99.90
8436;DHT22;4255;48.730;9.156;2022-10-16T02:34:27;16.90;99.90
8436;DHT22;4255;48.730;9.156;2022-10-16T02:36:53;16.90;99.90
8436;DHT22;4255;48.730;9.156;2022-10-16T02:39:20;17.00;99.90
8436;DHT22;4255;48.730;9.156;2022-10-16T02:41:47;16.90;99.90
8436;DHT22;4255;48.730;9.156;2022-10-16T02:44:12;16.90;99.90
8436;DHT22;4255;48.730;9.156;2022-10-16T02:46:38;16.90;99.90
8436;DHT22;4255;48.730;9.156;2022-10-16T02:49:04;17.00;99.90
8436;DHT22;4255;48.730;9.156;2022-10-16T02:51:29;17.00;99.90
8436;DHT22;4255;48.730;9.156;2022-10-16T02:53:55;17.10;99.90
8436;DHT22;4255;48.730;9.156;2022-10-16T02:56:21;17.20;99.90
8436;DHT22;4255;48.730;9.156;2022-10-16T02:58:46;17.20;99.90
8436;DHT22;4255;48.730;9.156;2022-10-16T03:01:12;17.30;99.90
8436;DHT22;4255;48.730;9.156;2022-10-16T03:03:39;17.30;99.90
8436;DHT22;4255;48.730;9.156;2022-10-16T03:06:05;17.30;99.90
8436;DHT22;4255;48.730;9.156;2022-10-16T03:08:31;17.20;99.90
8436;DHT22;4255;48.730;9.156;2022-10-16T03:10:57;17.20;99.90
8436;DHT22;4255;48.730;9.156;2022-10-16T03:13:22;17.20;99.90
8436;DHT22;4255;48.730;9.156;2022-10-16T03:15:48;17.20;99.90
8436;DHT22;4255;48.730;9.156;2022-10-16T03:18:14;17.20;99.90
8436;DHT22;4255;48.730;9.156;2022-10-16T03:20:40;17.20;99.90
8436;DHT22;4255;48.730;9.156;2022-10-16T03:23:06;17.20;99.90
8436;DHT22;4255;48.730;9.156;2022-10-16T03:25:33;17.20;99.90
8436;DHT22;4255;48.730;9.156;2022-10-16T03:27:59;17.20;99.90
8436;DHT22;4255;48.730;9.156;2022-10-16T03:30:24;17.20;99.90
8436;DHT22;4255;48.730;9.156;2022-10-16T03:32:50;17.20;99.90
8436;DHT22;4255;48.730;9.156;2022-10-16T03:35:22;17.20;99.90
8436;DHT22;4255;48.730;9.156;2022-10-16T03:37:48;17.20;99.90
8436;DHT22;4255;48.730;9.156;2022-10-16T03:40:14;17.20;99.90
8436;DHT22;4255;48.730;9.156;2022-10-16T03:42:42;17.10;99.90
8436;DHT22;4255;48.730;9.156;2022-10-16T03:45:08;17.10;99.90
8436;DHT22;4255;48.730;9.156;2022-10-16T03:47:34;17.10;99.90
8436;DHT22;4255;48.730;9.156;2022-10-16T03:49:59;17.10;99.90
8436;DHT22;4255;48.730;9.156;2022-10-16T03:52:25;17.10;99.90
8436;DHT22;4255;48.730;9.156;2022-10-16T03:54:51;17.10;99.90
8436;DHT22;4255;48.730;9.156;2022-10-16T03:57:16;17.10;99.90
8436;DHT22;4255;48.730;9.156;2022-10-16T03:59:42;17.00;99.90
8436;DHT22;4255;48.730;9.156;2022-10-16T04:02:08;17.00;99.90
8436;DHT22;4255;48.730;9.156;2022-10-16T04:04:33;17.00;99.90
8436;DHT22;4255;48.730;9.156;2022-10-16T04:06:59;16.90;99.90
8436;DHT22;4255;48.730;9.156;2022-10-16T04:09:25;16.90;99.90
8436;DHT22;4255;48.730;9.156;2022-10-16T04:11:51;16.90;99.90
8436;DHT22;4255;48.730;9.156;2022-10-16T04:14:16;16.90;99.90
8436;DHT22;4255;48.730;9.156;2022-10-16T04:16:42;17.00;99.90
8436;DHT22;4255;48.730;9.156;2022-10-16T04:19:09;17.00;99.90
8436;DHT22;4255;48.730;9.156;2022-10-16T04:21:35;17.00;99.90
8436;DHT22;4255;48.730;9.156;2022-10-16T04:24:00;17.00;99.90
8436;DHT22;4255;48.730;9.156;2022-10-16T04:26:26;17.00;99.90
8436;DHT22;4255;48.730;9.156;2022-10-16T04:28:52;17.00;99.90
8436;DHT22;4255;48.730;9.156;2022-10-16T04:31:17;17.00;99.90
8436;DHT22;4255;48.730;9.156;2022-10-16T04:33:43;16.90;99.90
8436;DHT22;4255;48.730;9.156;2022-10-16T04:36:09;16.90;99.90
8436;DHT22;4255;48.730;9.156;2022-10-16T04:38:35;16.90;99.90
8436;DHT22;4255;48.730;9.156;2022-10-16T04:41:03;16.80;99.90
8436;DHT22;4255;48.730;9.156;2022-10-16T04:43:28;16.70;99.90
8436;DHT22;4255;48.730;9.156;2022-10-16T04:45:54;16.70;99.90
8436;DHT22;4255;48.730;9.156;2022-10-16T04:48:20;16.70;99.90
8436;DHT22;4255;48.730;9.156;2022-10-16T04:50:46;16.80;99.90
8436;DHT22;4255;48.730;9.156;2022-10-16T04:53:11;16.90;99.90
8436;DHT22;4255;48.730;9.156;2022-10-16T04:55:37;16.90;99.90
8436;DHT22;4255;48.730;9.156;2022-10-16T04:58:03;16.90;99.90
8436;DHT22;4255;48.730;9.156;2022-10-16T05:00:29;17.00;99.90
8436;DHT22;4255;48.730;9.156;2022-10-16T05:02:55;16.90;99.90
8436;DHT22;4255;48.730;9.156;2022-10-16T05:05:20;17.00;99.90
8436;DHT22;4255;48.730;9.156;2022-10-16T05:07:47;17.00;99.90
8436;DHT22;4255;48.730;9.156;2022-10-16T05:10:12;17.00;99.90
8436;DHT22;4255;48.730;9.156;2022-10-16T05:12:38;17.10;99.90
8436;DHT22;4255;48.730;9.156;2022-10-16T05:15:04;17.10;99.90
8436;DHT22;4255;48.730;9.156;2022-10-16T05:17:30;17.00;99.90
8436;DHT22;4255;48.730;9.156;2022-10-16T05:19:55;17.00;99.90
8436;DHT22;4255;48.730;9.156;2022-10-16T05:22:21;17.00;99.90
8436;DHT22;4255;48.730;9.156;2022-10-16T05:24:46;17.00;99.90
8436;DHT22;4255;48.730;9.156;2022-10-16T05:27:12;17.00;99.90
8436;DHT22;4255;48.730;9.156;2022-10-16T05:29:45;17.00;99.90
8436;DHT22;4255;48.730;9.156;2022-10-16T05:32:11;17.10;99.90
8436;DHT22;4255;48.730;9.156;2022-10-16T05:34:37;17.10;99.90
8436;DHT22;4255;48.730;9.156;2022-10-16T05:37:02;17.10;99.90
8436;DHT22;4255;48.730;9.156;2022-10-16T05:39:28;17.20;99.90
8436;DHT22;4255;48.730;9.156;2022-10-16T05:41:53;17.10;99.90
8436;DHT22;4255;48.730;9.156;2022-10-16T05:44:19;17.10;99.90
8436;DHT22;4255;48.730;9.156;2022-10-16T05:46:46;17.10;99.90
8436;DHT22;4255;48.730;9.156;2022-10-16T05:49:12;17.10;99.90
8436;DHT22;4255;48.730;9.156;2022-10-16T05:51:38;17.00;99.90
8436;DHT22;4255;48.730;9.156;2022-10-16T05:54:03;17.10;99.90
8436;DHT22;4255;48.730;9.156;2022-10-16T05:56:29;17.10;99.90
8436;DHT22;4255;48.730;9.156;2022-10-16T05:58:55;17.10;99.90
8436;DHT22;4255;48.730;9.156;2022-10-16T06:01:21;17.20;99.90
8436;DHT22;4255;48.730;9.156;2022-10-16T06:03:50;17.10;99.90
8436;DHT22;4255;48.730;9.156;2022-10-16T06:06:20;17.10;99.90
8436;DHT22;4255;48.730;9.156;2022-10-16T06:08:47;17.20;99.90
8436;DHT22;4255;48.730;9.156;2022-10-16T06:11:15;17.20;99.90
8436;DHT22;4255;48.730;9.156;2022-10-16T06:13:41;17.20;99.90
8436;DHT22;4255;48.730;9.156;2022-10-16T06:16:08;17.30;99.90
8436;DHT22;4255;48.730;9.156;2022-10-16T06:18:35;17.30;99.90
8436;DHT22;4255;48.730;9.156;2022-10-16T06:21:10;17.20;99.90
8436;DHT22;4255;48.730;9.156;2022-10-16T06:23:37;17.20;99.90
8436;DHT22;4255;48.730;9.156;2022-10-16T06:26:14;17.30;99.90
8436;DHT22;4255;48.730;9.156;2022-10-16T06:28:40;17.30;99.90
8436;DHT22;4255;48.730;9.156;2022-10-16T06:31:07;17.30;99.90
8436;DHT22;4255;48.730;9.156;2022-10-16T06:33:33;17.40;99.90
8436;DHT22;4255;48.730;9.156;2022-10-16T06:36:04;17.40;99.90
8436;DHT22;4255;48.730;9.156;2022-10-16T06:38:30;17.30;99.90
8436;DHT22;4255;48.730;9.156;2022-10-16T06:40:56;17.00;99.90
8436;DHT22;4255;48.730;9.156;2022-10-16T06:43:22;17.10;99.90
8436;DHT22;4255;48.730;9.156;2022-10-16T06:45:55;17.20;99.90
8436;DHT22;4255;48.730;9.156;2022-10-16T06:48:21;17.50;99.90
8436;DHT22;4255;48.730;9.156;2022-10-16T06:53:26;17.80;99.90
8436;DHT22;4255;48.730;9.156;2022-10-16T06:55:51;17.80;99.90
8436;DHT22;4255;48.730;9.156;2022-10-16T06:58:17;17.90;99.90
8436;DHT22;4255;48.730;9.156;2022-10-16T07:00:43;18.00;99.90
8436;DHT22;4255;48.730;9.156;2022-10-16T07:03:09;17.90;99.90
8436;DHT22;4255;48.730;9.156;2022-10-16T07:05:42;17.90;99.90
8436;DHT22;4255;48.730;9.156;2022-10-16T07:08:08;17.90;99.90
8436;DHT22;4255;48.730;9.156;2022-10-16T07:10:34;17.90;99.90
8436;DHT22;4255;48.730;9.156;2022-10-16T07:12:59;18.00;99.90
8436;DHT22;4255;48.730;9.156;2022-10-16T07:15:25;18.10;99.90
8436;DHT22;4255;48.730;9.156;2022-10-16T07:17:51;18.10;99.90
8436;DHT22;4255;48.730;9.156;2022-10-16T07:20:17;18.30;99.90
8436;DHT22;4255;48.730;9.156;2022-10-16T07:22:43;18.40;99.90
8436;DHT22;4255;48.730;9.156;2022-10-16T07:25:08;18.50;99.90
8436;DHT22;4255;48.730;9.156;2022-10-16T07:27:34;18.40;99.90
8436;DHT22;4255;48.730;9.156;2022-10-16T07:30:00;18.50;99.90
8436;DHT22;4255;48.730;9.156;2022-10-16T07:32:26;18.50;99.90
8436;DHT22;4255;48.730;9.156;2022-10-16T07:34:52;18.50;99.90
8436;DHT22;4255;48.730;9.156;2022-10-16T07:37:18;18.50;99.90
8436;DHT22;4255;48.730;9.156;2022-10-16T07:39:44;18.40;99.90
8436;DHT22;4255;48.730;9.156;2022-10-16T07:42:09;18.30;99.90
8436;DHT22;4255;48.730;9.156;2022-10-16T07:44:35;18.20;99.90
8436;DHT22;4255;48.730;9.156;2022-10-16T07:47:01;18.10;99.90
8436;DHT22;4255;48.730;9.156;2022-10-16T07:49:27;18.20;99.90
8436;DHT22;4255;48.730;9.156;2022-10-16T07:51:52;18.30;99.90
8436;DHT22;4255;48.730;9.156;2022-10-16T07:54:18;18.40;99.90
8436;DHT22;4255;48.730;9.156;2022-10-16T07:56:44;18.40;99.90
8436;DHT22;4255;48.730;9.156;2022-10-16T07:59:09;18.50;99.90
8436;DHT22;4255;48.730;9.156;2022-10-16T08:01:35;18.70;99.90
8436;DHT22;4255;48.730;9.156;2022-10-16T08:04:01;18.80;99.90
8436;DHT22;4255;48.730;9.156;2022-10-16T08:06:26;18.80;99.90
8436;DHT22;4255;48.730;9.156;2022-10-16T08:08:52;18.70;99.90
8436;DHT22;4255;48.730;9.156;2022-10-16T08:11:17;18.80;99.90
8436;DHT22;4255;48.730;9.156;2022-10-16T08:13:43;18.70;99.90
8436;DHT22;4255;48.730;9.156;2022-10-16T08:16:09;18.50;99.90
8436;DHT22;4255;48.730;9.156;2022-10-16T08:18:39;18.50;99.90
8436;DHT22;4255;48.730;9.156;2022-10-16T08:21:06;18.60;99.90
8436;DHT22;4255;48.730;9.156;2022-10-16T08:23:33;18.80;99.90
8436;DHT22;4255;48.730;9.156;2022-10-16T08:26:03;19.00;99.90
8436;DHT22;4255;48.730;9.156;2022-10-16T08:28:29;19.20;99.90
8436;DHT22;4255;48.730;9.156;2022-10-16T08:30:55;19.50;99.90
8436;DHT22;4255;48.730;9.156;2022-10-16T08:33:22;19.50;99.90
8436;DHT22;4255;48.730;9.156;2022-10-16T08:35:54;19.70;99.90
8436;DHT22;4255;48.730;9.156;2022-10-16T08:38:19;19.90;99.90
8436;DHT22;4255;48.730;9.156;2022-10-16T08:40:45;20.00;99.90
8436;DHT22;4255;48.730;9.156;2022-10-16T08:50:56;20.30;99.90
8436;DHT22;4255;48.730;9.156;2022-10-16T08:53:28;20.40;99.90
8436;DHT22;4255;48.730;9.156;2022-10-16T08:55:55;20.40;99.90
8436;DHT22;4255;48.730;9.156;2022-10-16T08:58:23;20.50;99.90
8436;DHT22;4255;48.730;9.156;2022-10-16T09:01:12;20.60;99.90
8436;DHT22;4255;48.730;9.156;2022-10-16T09:06:18;20.50;99.90
8436;DHT22;4255;48.730;9.156;2022-10-16T09:19:48;20.70;99.90
8436;DHT22;4255;48.730;9.156;2022-10-16T09:22:17;21.00;99.90
8436;DHT22;4255;48.730;9.156;2022-10-16T09:24:43;21.00;99.90
8436;DHT22;4255;48.730;9.156;2022-10-16T09:27:11;21.10;99.90
8436;DHT22;4255;48.730;9.156;2022-10-16T09:29:38;21.30;99.90
8436;DHT22;4255;48.730;9.156;2022-10-16T09:32:30;21.20;99.90
8436;DHT22;4255;48.730;9.156;2022-10-16T09:34:57;21.20;99.90
8436;DHT22;4255;48.730;9.156;2022-10-16T09:37:23;21.20;99.90
8436;DHT22;4255;48.730;9.156;2022-10-16T09:39:53;21.40;99.90
8436;DHT22;4255;48.730;9.156;2022-10-16T09:44:52;21.80;99.90
8436;DHT22;4255;48.730;9.156;2022-10-16T09:47:21;21.70;99.90
8436;DHT22;4255;48.730;9.156;2022-10-16T09:49:53;21.80;99.90
8436;DHT22;4255;48.730;9.156;2022-10-16T09:52:22;21.80;99.90
8436;DHT22;4255;48.730;9.156;2022-10-16T09:54:56;21.80;99.90
8436;DHT22;4255;48.730;9.156;2022-10-16T09:57:23;22.20;99.90
8436;DHT22;4255;48.730;9.156;2022-10-16T09:59:59;22.30;99.90
8436;DHT22;4255;48.730;9.156;2022-10-16T10:02:34;22.30;99.90
8436;DHT22;4255;48.730;9.156;2022-10-16T10:05:01;22.20;99.90
8436;DHT22;4255;48.730;9.156;2022-10-16T10:07:31;22.20;99.90
8436;DHT22;4255;48.730;9.156;2022-10-16T10:09:59;22.30;99.90
8436;DHT22;4255;48.730;9.156;2022-10-16T10:12:31;22.60;99.90
8436;DHT22;4255;48.730;9.156;2022-10-16T10:15:09;22.60;99.90
8436;DHT22;4255;48.730;9.156;2022-10-16T10:17:46;22.80;99.90
8436;DHT22;4255;48.730;9.156;2022-10-16T10:22:48;22.80;99.90
8436;DHT22;4255;48.730;9.156;2022-10-16T10:25:19;22.80;99.90
8436;DHT22;4255;48.730;9.156;2022-10-16T10:27:54;22.80;99.90
8436;DHT22;4255;48.730;9.156;2022-10-16T10:30:34;22.90;99.90
8436;DHT22;4255;48.730;9.156;2022-10-16T10:33:36;23.10;99.90
8436;DHT22;4255;48.730;9.156;2022-10-16T10:36:09;23.00;99.90
8436;DHT22;4255;48.730;9.156;2022-10-16T10:38:47;22.80;99.90
8436;DHT22;4255;48.730;9.156;2022-10-16T10:44:08;23.00;99.90
8436;DHT22;4255;48.730;9.156;2022-10-16T10:47:27;22.80;99.90
8436;DHT22;4255;48.730;9.156;2022-10-16T10:49:34;22.90;99.90
8436;DHT22;4255;48.730;9.156;2022-10-16T10:52:33;23.00;99.90
8436;DHT22;4255;48.730;9.156;2022-10-16T10:58:29;23.50;99.90
8436;DHT22;4255;48.730;9.156;2022-10-16T11:06:36;23.40;99.90
8436;DHT22;4255;48.730;9.156;2022-10-16T11:09:23;23.60;99.90
8436;DHT22;4255;48.730;9.156;2022-10-16T11:14:30;24.00;99.90
8436;DHT22;4255;48.730;9.156;2022-10-16T11:17:13;24.10;99.90
8436;DHT22;4255;48.730;9.156;2022-10-16T11:19:51;24.30;99.90
8436;DHT22;4255;48.730;9.156;2022-10-16T11:22:36;24.40;99.90
8436;DHT22;4255;48.730;9.156;2022-10-16T11:35:44;24.30;99.90
8436;DHT22;4255;48.730;9.156;2022-10-16T11:38:20;24.20;99.90
8436;DHT22;4255;48.730;9.156;2022-10-16T11:40:50;24.30;99.90
8436;DHT22;4255;48.730;9.156;2022-10-16T11:43:26;24.10;99.90
8436;DHT22;4255;48.730;9.156;2022-10-16T11:46:00;24.10;99.90
8436;DHT22;4255;48.730;9.156;2022-10-16T11:49:08;24.10;99.90
8436;DHT22;4255;48.730;9.156;2022-10-16T11:54:25;24.60;99.90
8436;DHT22;4255;48.730;9.156;2022-10-16T11:56:59;24.70;99.90
8436;DHT22;4255;48.730;9.156;2022-10-16T11:59:38;24.90;99.90
8436;DHT22;4255;48.730;9.156;2022-10-16T12:08:06;25.20;99.90
8436;DHT22;4255;48.730;9.156;2022-10-16T12:10:34;25.60;99.90
8436;DHT22;4255;48.730;9.156;2022-10-16T12:15:52;25.80;99.90
8436;DHT22;4255;48.730;9.156;2022-10-16T12:18:22;25.80;99.90
8436;DHT22;4255;48.730;9.156;2022-10-16T12:20:55;25.60;99.90
8436;DHT22;4255;48.730;9.156;2022-10-16T12:23:24;25.60;99.90
8436;DHT22;4255;48.730;9.156;2022-10-16T12:25:58;25.60;99.90
8436;DHT22;4255;48.730;9.156;2022-10-16T12:28:30;25.90;99.90
8436;DHT22;4255;48.730;9.156;2022-10-16T12:31:06;25.80;99.90
8436;DHT22;4255;48.730;9.156;2022-10-16T12:33:34;25.80;99.90
8436;DHT22;4255;48.730;9.156;2022-10-16T12:36:45;25.70;99.90
8436;DHT22;4255;48.730;9.156;2022-10-16T12:38:53;25.60;99.90
8436;DHT22;4255;48.730;9.156;2022-10-16T12:41:30;25.70;99.90
8436;DHT22;4255;48.730;9.156;2022-10-16T12:43:56;26.00;99.90
8436;DHT22;4255;48.730;9.156;2022-10-16T12:51:39;26.70;99.90
8436;DHT22;4255;48.730;9.156;2022-10-16T12:54:15;26.30;99.90
8436;DHT22;4255;48.730;9.156;2022-10-16T13:27:56;25.00;99.90
8436;DHT22;4255;48.730;9.156;2022-10-16T13:30:30;25.00;99.90
8436;DHT22;4255;48.730;9.156;2022-10-16T13:33:02;25.00;99.90
8436;DHT22;4255;48.730;9.156;2022-10-16T13:35:32;25.20;99.90
8436;DHT22;4255;48.730;9.156;2022-10-16T13:38:19;25.50;99.90
8436;DHT22;4255;48.730;9.156;2022-10-16T13:43:20;25.50;99.90
8436;DHT22;4255;48.730;9.156;2022-10-16T13:46:04;25.40;99.90
8436;DHT22;4255;48.730;9.156;2022-10-16T13:48:32;25.10;99.90
8436;DHT22;4255;48.730;9.156;2022-10-16T13:51:03;25.20;99.90
8436;DHT22;4255;48.730;9.156;2022-10-16T13:53:35;25.00;99.90
8436;DHT22;4255;48.730;9.156;2022-10-16T13:56:06;25.00;99.90
8436;DHT22;4255;48.730;9.156;2022-10-16T13:58:32;25.20;99.90
8436;DHT22;4255;48.730;9.156;2022-10-16T14:01:24;25.10;99.90
8436;DHT22;4255;48.730;9.156;2022-10-16T14:03:51;25.20;99.90
8436;DHT22;4255;48.730;9.156;2022-10-16T14:06:21;25.20;99.90
8436;DHT22;4255;48.730;9.156;2022-10-16T14:09:05;25.20;99.90
8436;DHT22;4255;48.730;9.156;2022-10-16T14:11:32;25.10;99.90
8436;DHT22;4255;48.730;9.156;2022-10-16T14:13:59;25.20;99.90
8436;DHT22;4255;48.730;9.156;2022-10-16T14:16:27;25.30;99.90
8436;DHT22;4255;48.730;9.156;2022-10-16T14:19:04;25.10;99.90
8436;DHT22;4255;48.730;9.156;2022-10-16T14:21:36;25.30;99.90
8436;DHT22;4255;48.730;9.156;2022-10-16T14:24:13;25.40;99.90
8436;DHT22;4255;48.730;9.156;2022-10-16T14:26:44;25.10;99.90
8436;DHT22;4255;48.730;9.156;2022-10-16T14:29:18;25.10;99.90
8436;DHT22;4255;48.730;9.156;2022-10-16T14:32:05;25.10;99.90
8436;DHT22;4255;48.730;9.156;2022-10-16T14:34:36;25.10;99.90
8436;DHT22;4255;48.730;9.156;2022-10-16T14:37:26;25.10;99.90
8436;DHT22;4255;48.730;9.156;2022-10-16T14:39:53;25.10;99.90
8436;DHT22;4255;48.730;9.156;2022-10-16T14:42:21;25.20;99.90
8436;DHT22;4255;48.730;9.156;2022-10-16T14:44:50;25.00;99.90
8436;DHT22;4255;48.730;9.156;2022-10-16T14:47:22;24.80;99.90
8436;DHT22;4255;48.730;9.156;2022-10-16T14:49:51;24.70;99.90
8436;DHT22;4255;48.730;9.156;2022-10-16T14:52:17;24.80;99.90
8436;DHT22;4255;48.730;9.156;2022-10-16T14:54:43;24.90;99.90
8436;DHT22;4255;48.730;9.156;2022-10-16T14:57:20;25.00;99.90
8436;DHT22;4255;48.730;9.156;2022-10-16T14:59:48;25.00;99.90
8436;DHT22;4255;48.730;9.156;2022-10-16T15:04:45;25.30;99.90
8436;DHT22;4255;48.730;9.156;2022-10-16T15:07:10;25.40;99.90
8436;DHT22;4255;48.730;9.156;2022-10-16T15:09:36;25.40;99.90
8436;DHT22;4255;48.730;9.156;2022-10-16T15:12:01;25.50;99.90
8436;DHT22;4255;48.730;9.156;2022-10-16T15:14:27;25.50;99.90
8436;DHT22;4255;48.730;9.156;2022-10-16T15:16:53;25.40;99.90
8436;DHT22;4255;48.730;9.156;2022-10-16T15:19:19;25.40;99.90
8436;DHT22;4255;48.730;9.156;2022-10-16T15:21:44;25.20;99.90
8436;DHT22;4255;48.730;9.156;2022-10-16T15:24:12;25.20;99.90
8436;DHT22;4255;48.730;9.156;2022-10-16T15:26:38;25.20;99.90
8436;DHT22;4255;48.730;9.156;2022-10-16T15:29:04;25.20;99.90
8436;DHT22;4255;48.730;9.156;2022-10-16T15:31:30;25.10;99.90
8436;DHT22;4255;48.730;9.156;2022-10-16T15:33:56;25.10;99.90
8436;DHT22;4255;48.730;9.156;2022-10-16T15:36:37;25.10;99.90
8436;DHT22;4255;48.730;9.156;2022-10-16T15:39:04;25.00;99.90
8436;DHT22;4255;48.730;9.156;2022-10-16T15:41:31;25.00;99.90
8436;DHT22;4255;48.730;9.156;2022-10-16T15:43:56;24.90;99.90
8436;DHT22;4255;48.730;9.156;2022-10-16T15:46:23;24.60;99.90
8436;DHT22;4255;48.730;9.156;2022-10-16T15:48:50;24.60;99.90
8436;DHT22;4255;48.730;9.156;2022-10-16T15:51:17;24.50;99.90
8436;DHT22;4255;48.730;9.156;2022-10-16T15:53:43;24.50;99.90
8436;DHT22;4255;48.730;9.156;2022-10-16T15:56:10;24.50;99.90
8436;DHT22;4255;48.730;9.156;2022-10-16T15:58:36;24.50;99.90
8436;DHT22;4255;48.730;9.156;2022-10-16T16:01:02;24.30;99.90
8436;DHT22;4255;48.730;9.156;2022-10-16T16:03:29;24.30;99.90
8436;DHT22;4255;48.730;9.156;2022-10-16T16:05:55;24.20;99.90
8436;DHT22;4255;48.730;9.156;2022-10-16T16:08:21;24.10;99.90
8436;DHT22;4255;48.730;9.156;2022-10-16T16:11:01;23.90;99.90
8436;DHT22;4255;48.730;9.156;2022-10-16T16:13:27;23.80;99.90
8436;DHT22;4255;48.730;9.156;2022-10-16T16:15:53;23.80;99.90
8436;DHT22;4255;48.730;9.156;2022-10-16T16:18:18;23.70;99.90
8436;DHT22;4255;48.730;9.156;2022-10-16T16:20:44;23.70;99.90
8436;DHT22;4255;48.730;9.156;2022-10-16T16:23:10;23.70;99.90
8436;DHT22;4255;48.730;9.156;2022-10-16T16:25:36;23.60;99.90
8436;DHT22;4255;48.730;9.156;2022-10-16T16:28:01;23.50;99.90
8436;DHT22;4255;48.730;9.156;2022-10-16T16:30:27;23.30;99.90
8436;DHT22;4255;48.730;9.156;2022-10-16T16:32:53;23.00;99.90
8436;DHT22;4255;48.730;9.156;2022-10-16T16:35:18;22.80;99.90
8436;DHT22;4255;48.730;9.156;2022-10-16T16:37:44;22.70;99.90
8436;DHT22;4255;48.730;9.156;2022-10-16T16:40:09;22.70;99.90
8436;DHT22;4255;48.730;9.156;2022-10-16T16:42:35;22.50;99.90
8436;DHT22;4255;48.730;9.156;2022-10-16T16:45:01;22.40;99.90
8436;DHT22;4255;48.730;9.156;2022-10-16T16:47:26;22.30;99.90
8436;DHT22;4255;48.730;9.156;2022-10-16T16:49:52;22.20;99.90
8436;DHT22;4255;48.730;9.156;2022-10-16T16:52:17;22.10;99.90
8436;DHT22;4255;48.730;9.156;2022-10-16T16:54:43;22.00;99.90
8436;DHT22;4255;48.730;9.156;2022-10-16T16:57:10;22.00;99.90
8436;DHT22;4255;48.730;9.156;2022-10-16T16:59:36;22.00;99.90
8436;DHT22;4255;48.730;9.156;2022-10-16T17:02:02;21.80;99.90
8436;DHT22;4255;48.730;9.156;2022-10-16T17:04:27;21.70;99.90
8436;DHT22;4255;48.730;9.156;2022-10-16T17:06:54;21.60;99.90
8436;DHT22;4255;48.730;9.156;2022-10-16T17:09:20;21.50;99.90
8436;DHT22;4255;48.730;9.156;2022-10-16T17:11:46;21.50;99.90
8436;DHT22;4255;48.730;9.156;2022-10-16T17:14:13;21.50;99.90
8436;DHT22;4255;48.730;9.156;2022-10-16T17:16:40;21.50;99.90
8436;DHT22;4255;48.730;9.156;2022-10-16T17:19:12;21.40;99.90
8436;DHT22;4255;48.730;9.156;2022-10-16T17:21:38;21.30;99.90
8436;DHT22;4255;48.730;9.156;2022-10-16T17:24:04;21.10;99.90
8436;DHT22;4255;48.730;9.156;2022-10-16T17:26:30;21.00;99.90
8436;DHT22;4255;48.730;9.156;2022-10-16T17:28:58;21.00;99.90
8436;DHT22;4255;48.730;9.156;2022-10-16T17:31:26;21.00;99.90
8436;DHT22;4255;48.730;9.156;2022-10-16T17:33:52;21.00;99.90
8436;DHT22;4255;48.730;9.156;2022-10-16T17:36:19;20.90;99.90
8436;DHT22;4255;48.730;9.156;2022-10-16T17:38:45;20.90;99.90
8436;DHT22;4255;48.730;9.156;2022-10-16T17:41:15;20.80;99.90
8436;DHT22;4255;48.730;9.156;2022-10-16T17:43:42;20.70;99.90
8436;DHT22;4255;48.730;9.156;2022-10-16T17:46:09;20.60;99.90
8436;DHT22;4255;48.730;9.156;2022-10-16T17:48:39;20.50;99.90
8436;DHT22;4255;48.730;9.156;2022-10-16T17:51:06;20.50;99.90
8436;DHT22;4255;48.730;9.156;2022-10-16T17:53:33;20.40;99.90
8436;DHT22;4255;48.730;9.156;2022-10-16T17:56:10;20.40;99.90
8436;DHT22;4255;48.730;9.156;2022-10-16T17:58:37;20.30;99.90
8436;DHT22;4255;48.730;9.156;2022-10-16T18:01:18;20.30;99.90
8436;DHT22;4255;48.730;9.156;2022-10-16T18:03:49;20.20;99.90
8436;DHT22;4255;48.730;9.156;2022-10-16T18:06:15;20.10;99.90
8436;DHT22;4255;48.730;9.156;2022-10-16T18:08:40;20.00;99.90
8436;DHT22;4255;48.730;9.156;2022-10-16T18:11:06;20.00;99.90
8436;DHT22;4255;48.730;9.156;2022-10-16T18:13:32;19.90;99.90
8436;DHT22;4255;48.730;9.156;2022-10-16T18:16:06;19.80;99.90
8436;DHT22;4255;48.730;9.156;2022-10-16T18:18:34;19.70;99.90